メインページ
METAR-TAF:

METAR-TAF

空港 :

O・R・タンボ国際空港

ヨハネスブルグ, 南アフリカ共和国

緯度: 26-08S, 経度: 028-14E, 海抜: 1694m

現時点の気象観測

当レポートは34分前の18:00(UTC)に作成
変向風 5kt
気温 19°C
湿度 32%
気圧 1027 hPa
視程10km以上
1,500メートル以下は雲なし、積乱雲なし

METAR: FAOR 151800Z VRB05KT CAVOK 19/02 Q1027 NOSIG

時間: 20:34 (18:34 UTC)

予報

当レポートは2時間34分前の16:00(UTC)に作成
予報は15日の 18時(UTC)から 16日の 24時(UTC)まで有効
の風 10kt
視程10km以上
1,500メートル以下は雲なし、積乱雲なし
16日の 06時(UTC)から 16日の 08時(UTC)まで徐々に
北/北西の風 14kt

TAF: FAOR 151600Z 1518/1624 36010KT CAVOK BECMG 1606/1608 33014KT TX24/1612Z TN13/1604Z

4,000以上の空港の気象観測と天気予報(METAR報とTAF報)

利用可能な観測所は地図上に黄色い丸と赤い丸で示す。

丸の上にカーソルを重ねると観測所名を参照できる。

次にクリックすると気象観測と天気予報を参照できる。

マップの切り替え:黒色「×」印の緑ボタンをクリックして拡大、「-」印の緑ボタンをクリックして縮小、緑色の三角印をクリックして隣りの地図に切り替え


METAR-TAF: